St-Faustin-Lac-Carre, Canada
Current Conditions -  °F | °C
As of 11:00 AM on Saturday 25 Oct 2014 (Local Time) from CYMX Reporting Station
Overcast Overcast  
Wind Chill: 44°   Ceiling: 4000
Heat Index: 48°   Visibility: 45mi
Dew Point: 39°   Wind: 9mph
Humidity: 71%   Direction: 240°WSW
Pressure: 29.68"   Gusts: NA
Location:  46.11°N, 74.48°W
Report Text: CYMX 251500Z 24008KT 190V260 45SM BKN040 OVC150 09/04 A2968 RMK SC7AC1 SLP053
Loading
Personal Weather Stations






























Interactive Weather Map
Tropical Storm Tracking
New forecast layout! Learn more

10-Day Weather Forecast

Advertisements
Track Severe Weather on mobile